Time;durP1;ratioP1;P1;durP2;ratioP2;P2;SDS_P1;SDS_P2;PMS_P1;PMS_P2;Temp;Humidity;BMP_temperature;BMP_pressure;BME280_temperature;BME280_humidity;BME280_pressure;Samples;Min_cycle;Max_cycle;Signal;HPM_P1;HPM_P2
2021/12/12 06:00:28;;;;;;;8.53;7.63;;;4.90;97.20;;;;;;1721342;28;20193;-78
2021/12/12 06:01:19;;;;;;;9.95;8.48;;;4.90;97.20;;;;;;1721311;28;20201;-78
2021/12/12 06:02:11;;;;;;;11.15;8.45;;;4.90;97.20;;;;;;1721240;28;20197;-78
2021/12/12 06:03:07;;;;;;;11.98;10.30;;;4.80;97.20;;;;;;1721207;28;20197;-78
2021/12/12 06:03:59;;;;;;;12.90;11.18;;;4.80;97.20;;;;;;1721329;28;20201;-78
2021/12/12 06:04:53;;;;;;;14.23;11.02;;;4.80;97.20;;;;;;1721448;28;20235;-78
2021/12/12 06:05:46;;;;;;;13.82;10.60;;;4.80;97.20;;;;;;1721501;28;20252;-78
2021/12/12 06:06:40;;;;;;;16.27;12.60;;;4.80;97.20;;;;;;1721592;28;20233;-78
2021/12/12 06:07:33;;;;;;;11.00;9.77;;;4.80;97.20;;;;;;1721532;28;20328;-78
2021/12/12 06:08:26;;;;;;;7.75;6.85;;;4.80;97.20;;;;;;1716920;28;20213;-78
2021/12/12 06:09:19;;;;;;;7.43;6.72;;;4.70;97.20;;;;;;1721332;28;20193;-78
2021/12/12 06:10:13;;;;;;;6.70;6.10;;;4.70;97.20;;;;;;1720811;28;20205;-78
2021/12/12 06:11:07;;;;;;;6.13;5.63;;;4.70;97.20;;;;;;1720993;28;20737;-78
2021/12/12 06:11:59;;;;;;;6.32;5.72;;;4.60;97.20;;;;;;1721601;28;20702;-78
2021/12/12 06:12:51;;;;;;;7.47;6.78;;;4.60;97.20;;;;;;1721221;28;20247;-78
2021/12/12 06:13:43;;;;;;;7.10;6.40;;;4.60;97.20;;;;;;1721320;28;20212;-78
2021/12/12 06:14:36;;;;;;;11.48;6.93;;;4.60;97.20;;;;;;1721462;28;20197;-78
2021/12/12 06:15:30;;;;;;;8.05;7.00;;;4.60;97.20;;;;;;1721464;28;20201;-78
2021/12/12 06:16:23;;;;;;;7.22;6.55;;;4.60;97.20;;;;;;1721308;28;20228;-78
2021/12/12 06:17:16;;;;;;;8.30;6.90;;;4.70;97.20;;;;;;1721482;28;20233;-78
2021/12/12 06:18:09;;;;;;;7.28;6.68;;;4.60;97.20;;;;;;1721473;28;20200;-78
2021/12/12 06:19:02;;;;;;;8.27;6.65;;;4.70;97.20;;;;;;1721329;28;20210;-78
2021/12/12 06:19:56;;;;;;;7.32;6.63;;;4.70;97.20;;;;;;1721307;28;20219;-78
2021/12/12 06:20:47;;;;;;;6.78;6.15;;;4.70;97.20;;;;;;1721322;28;20228;-78
2021/12/12 06:21:40;;;;;;;7.95;7.15;;;4.70;97.20;;;;;;1720916;28;20197;-78
2021/12/12 06:22:31;;;;;;;9.07;7.95;;;4.70;97.20;;;;;;1721406;28;20581;-78
2021/12/12 06:23:25;;;;;;;9.60;8.40;;;4.70;97.20;;;;;;1721015;28;20205;-78
2021/12/12 06:24:15;;;;;;;9.93;8.82;;;4.70;97.20;;;;;;1721272;28;20479;-78
2021/12/12 06:25:09;;;;;;;9.60;8.47;;;4.70;97.20;;;;;;1721328;28;20204;-78
2021/12/12 06:26:01;;;;;;;8.20;7.40;;;4.80;97.20;;;;;;1728194;28;20255;-77
2021/12/12 06:26:54;;;;;;;8.60;7.55;;;4.70;97.20;;;;;;1728135;28;20200;-78
2021/12/12 06:27:45;;;;;;;8.20;7.40;;;4.80;97.20;;;;;;1728258;28;20204;-78
2021/12/12 06:28:39;;;;;;;7.47;6.73;;;4.70;97.20;;;;;;1728355;28;20197;-78
2021/12/12 06:29:30;;;;;;;11.05;7.40;;;4.70;97.20;;;;;;1728124;28;20447;-78
2021/12/12 06:30:24;;;;;;;7.80;7.07;;;4.70;97.20;;;;;;1728084;28;20212;-78
2021/12/12 06:31:17;;;;;;;7.75;6.93;;;4.70;97.20;;;;;;1724154;28;20197;-78
2021/12/12 06:32:09;;;;;;;9.00;8.15;;;4.70;97.20;;;;;;1721115;28;20284;-78
2021/12/12 06:33:00;;;;;;;10.23;8.00;;;4.70;97.20;;;;;;1721292;28;20650;-78
2021/12/12 06:33:54;;;;;;;8.40;7.60;;;4.70;97.20;;;;;;1720723;28;20189;-78
2021/12/12 06:34:47;;;;;;;8.85;7.93;;;4.70;97.20;;;;;;1721402;28;20669;-78
2021/12/12 06:35:39;;;;;;;8.70;7.88;;;4.70;97.20;;;;;;1721145;28;20197;-78
2021/12/12 06:36:32;;;;;;;7.88;7.07;;;4.70;97.20;;;;;;1721329;28;20205;-78
2021/12/12 06:37:24;;;;;;;9.30;8.30;;;4.70;97.20;;;;;;1721381;28;20237;-78
2021/12/12 06:38:17;;;;;;;8.00;7.30;;;4.70;97.20;;;;;;1720954;28;20691;-78
2021/12/12 06:39:11;;;;;;;9.45;8.55;;;4.70;97.20;;;;;;1721338;28;20205;-78
2021/12/12 06:40:04;;;;;;;8.45;7.63;;;4.70;97.20;;;;;;1721301;28;20220;-78
2021/12/12 06:40:56;;;;;;;9.75;8.82;;;4.70;97.20;;;;;;1720978;28;20225;-78
2021/12/12 06:41:48;;;;;;;8.48;7.68;;;4.70;97.20;;;;;;1721235;28;20658;-78
2021/12/12 06:42:40;;;;;;;9.00;8.10;;;4.70;97.20;;;;;;1721231;28;20201;-78
2021/12/12 06:43:33;;;;;;;8.95;8.13;;;4.70;97.20;;;;;;1720979;28;20205;-78
2021/12/12 06:44:25;;;;;;;9.75;8.75;;;4.70;97.20;;;;;;1721203;28;20256;-78
2021/12/12 06:45:17;;;;;;;8.57;7.72;;;4.70;97.20;;;;;;1721121;28;20209;-78
2021/12/12 06:46:10;;;;;;;9.70;8.80;;;4.70;97.20;;;;;;1721109;28;20739;-78
2021/12/12 06:47:03;;;;;;;10.23;9.30;;;4.70;97.20;;;;;;1721479;28;20218;-78
2021/12/12 06:47:56;;;;;;;9.07;8.18;;;4.60;97.20;;;;;;1721219;28;20209;-78
2021/12/12 06:48:48;;;;;;;8.90;8.10;;;4.60;97.20;;;;;;1720945;28;20208;-78
2021/12/12 06:49:40;;;;;;;10.43;9.20;;;4.60;97.20;;;;;;1721316;28;20197;-78
2021/12/12 06:50:35;;;;;;;11.52;9.57;;;4.60;97.20;;;;;;1721244;28;20252;-78
2021/12/12 06:51:28;;;;;;;13.05;11.65;;;4.60;97.20;;;;;;1720992;28;20251;-78
2021/12/12 06:52:19;;;;;;;12.48;11.27;;;4.50;97.20;;;;;;1721250;28;20615;-78
2021/12/12 06:53:13;;;;;;;12.73;11.15;;;4.50;97.20;;;;;;1720949;28;20571;-78
2021/12/12 06:54:05;;;;;;;12.27;10.90;;;4.50;97.20;;;;;;1720811;28;20204;-78
2021/12/12 06:54:57;;;;;;;11.32;10.23;;;4.50;97.20;;;;;;1721168;28;20201;-78
2021/12/12 06:55:49;;;;;;;11.75;10.55;;;4.50;97.20;;;;;;1726658;28;20200;-78
2021/12/12 06:56:41;;;;;;;11.60;10.13;;;4.50;97.20;;;;;;1728044;28;20231;-78
2021/12/12 06:57:32;;;;;;;11.10;9.65;;;4.50;97.20;;;;;;1728110;28;20665;-78
2021/12/12 06:58:27;;;;;;;10.90;9.90;;;4.50;97.20;;;;;;1728034;28;20197;-78
2021/12/12 06:59:18;;;;;;;11.95;10.75;;;4.50;97.20;;;;;;1721687;28;20193;-78
2021/12/12 07:00:12;;;;;;;12.23;11.10;;;4.60;97.20;;;;;;1721320;28;20629;-78
2021/12/12 07:01:08;;;;;;;12.30;10.15;;;4.60;97.20;;;;;;1720813;28;20244;-78
2021/12/12 07:02:00;;;;;;;13.00;11.73;;;4.60;97.20;;;;;;1721337;28;20208;-78
2021/12/12 07:02:53;;;;;;;12.10;10.98;;;4.60;97.20;;;;;;1720895;28;20212;-78
2021/12/12 07:03:46;;;;;;;11.23;10.23;;;4.60;97.20;;;;;;1720986;28;20216;-78
2021/12/12 07:04:39;;;;;;;12.48;11.27;;;4.60;97.20;;;;;;1721168;28;20201;-78
2021/12/12 07:05:33;;;;;;;10.55;9.65;;;4.60;97.20;;;;;;1721076;28;20668;-78
2021/12/12 07:06:26;;;;;;;11.27;10.23;;;4.60;97.20;;;;;;1721080;28;20208;-78
2021/12/12 07:07:18;;;;;;;10.15;9.20;;;4.60;97.20;;;;;;1721025;28;20260;-78
2021/12/12 07:08:09;;;;;;;10.60;9.60;;;4.60;97.20;;;;;;1721033;28;20204;-78
2021/12/12 07:09:04;;;;;;;11.45;10.25;;;4.60;97.20;;;;;;1720585;28;20572;-78
2021/12/12 07:09:55;;;;;;;9.52;8.60;;;4.60;97.20;;;;;;1720891;28;20197;-78
2021/12/12 07:10:47;;;;;;;9.70;8.80;;;4.60;97.20;;;;;;1720865;28;20223;-78
2021/12/12 07:11:41;;;;;;;10.55;9.10;;;4.60;97.20;;;;;;1720936;28;20506;-78
2021/12/12 07:12:33;;;;;;;11.95;10.85;;;4.60;97.20;;;;;;1721266;28;20217;-79
2021/12/12 07:13:24;;;;;;;11.85;10.75;;;4.60;97.20;;;;;;1721009;28;20205;-78
2021/12/12 07:14:17;;;;;;;11.80;10.65;;;4.60;97.20;;;;;;1721141;28;20656;-78
2021/12/12 07:15:13;;;;;;;11.20;10.10;;;4.60;97.20;;;;;;1720969;28;20248;-78
2021/12/12 07:16:07;;;;;;;11.18;10.07;;;4.60;97.20;;;;;;1721266;28;20569;-78
2021/12/12 07:16:59;;;;;;;10.43;9.43;;;4.60;97.20;;;;;;1721152;28;20212;-78
2021/12/12 07:17:55;;;;;;;9.60;8.70;;;4.50;97.20;;;;;;1721127;28;20198;-78
2021/12/12 07:18:46;;;;;;;9.52;8.50;;;4.50;97.20;;;;;;1721122;28;20232;-78
2021/12/12 07:19:40;;;;;;;9.93;8.48;;;4.50;97.20;;;;;;1721034;28;20273;-78
2021/12/12 07:20:31;;;;;;;8.20;7.50;;;4.50;97.20;;;;;;1721225;28;20271;-77
2021/12/12 07:21:24;;;;;;;8.13;7.32;;;4.50;97.20;;;;;;1721037;28;20216;-78
2021/12/12 07:22:15;;;;;;;8.35;7.55;;;4.50;97.20;;;;;;1721290;28;20247;-78
2021/12/12 07:23:10;;;;;;;8.38;7.03;;;4.50;97.20;;;;;;1721361;28;20205;-78
2021/12/12 07:24:03;;;;;;;7.40;6.70;;;4.40;97.20;;;;;;1719641;28;20694;-78
2021/12/12 07:24:55;;;;;;;7.38;6.68;;;4.40;97.20;;;;;;1721288;28;20272;-78
2021/12/12 07:25:47;;;;;;;8.27;7.47;;;4.40;97.20;;;;;;1726298;28;20838;-78
2021/12/12 07:26:39;;;;;;;8.13;7.45;;;4.40;97.20;;;;;;1727993;28;20247;-78
2021/12/12 07:27:29;;;;;;;9.52;7.30;;;4.40;97.20;;;;;;1728109;28;20695;-78
2021/12/12 07:28:21;;;;;;;7.47;6.77;;;4.30;97.20;;;;;;1728162;28;20597;-78
2021/12/12 07:29:12;;;;;;;7.57;6.88;;;4.30;97.20;;;;;;1722438;28;20840;-78
2021/12/12 07:30:05;;;;;;;7.35;6.65;;;4.30;97.20;;;;;;1721452;28;20288;-78
2021/12/12 07:30:59;;;;;;;7.05;6.45;;;4.20;97.20;;;;;;1721191;28;20610;-78
2021/12/12 07:31:52;;;;;;;7.90;7.10;;;4.20;97.20;;;;;;1721083;28;20221;-78
2021/12/12 07:32:43;;;;;;;8.10;7.40;;;4.20;97.20;;;;;;1721265;28;20287;-78
2021/12/12 07:33:36;;;;;;;8.52;7.90;;;4.20;97.20;;;;;;1720445;28;20213;-78
2021/12/12 07:34:29;;;;;;;8.00;7.20;;;4.20;97.20;;;;;;1720995;28;20201;-78
2021/12/12 07:35:21;;;;;;;9.40;8.70;;;4.20;97.20;;;;;;1721315;28;20209;-78
2021/12/12 07:36:18;;;;;;;10.38;9.57;;;4.20;97.20;;;;;;1721427;28;20236;-78
2021/12/12 07:37:11;;;;;;;11.05;10.13;;;4.30;97.20;;;;;;1721357;28;20220;-78
2021/12/12 07:38:05;;;;;;;10.70;9.80;;;4.30;97.20;;;;;;1715026;28;20217;-78
2021/12/12 07:39:00;;;;;;;9.32;8.50;;;4.30;97.20;;;;;;1721603;28;20550;-78
2021/12/12 07:39:51;;;;;;;9.23;8.43;;;4.30;97.20;;;;;;1721335;28;20215;-78
2021/12/12 07:40:45;;;;;;;9.65;8.75;;;4.30;97.20;;;;;;1722067;28;20304;-78
2021/12/12 07:41:37;;;;;;;8.25;7.53;;;4.30;97.20;;;;;;1722096;28;20205;-78
2021/12/12 07:42:31;;;;;;;8.80;7.90;;;4.20;97.20;;;;;;1723009;28;20456;-78
2021/12/12 07:43:22;;;;;;;9.85;8.23;;;4.20;97.20;;;;;;1722375;28;20209;-78
2021/12/12 07:44:17;;;;;;;7.80;7.10;;;4.20;97.20;;;;;;1722419;28;20269;-78
2021/12/12 07:45:09;;;;;;;8.98;8.18;;;4.20;97.20;;;;;;1723029;28;20688;-78
2021/12/12 07:46:02;;;;;;;7.90;7.20;;;4.10;97.20;;;;;;1722863;28;20764;-78
2021/12/12 07:46:54;;;;;;;6.53;6.03;;;4.10;97.20;;;;;;1720509;28;20717;-77
2021/12/12 07:47:45;;;;;;;7.43;6.80;;;4.10;97.20;;;;;;1722776;28;20201;-77
2021/12/12 07:48:39;;;;;;;7.70;7.00;;;4.10;97.20;;;;;;1721821;28;20205;-80
2021/12/12 07:49:34;;;;;;;6.80;6.20;;;4.10;97.20;;;;;;1725254;28;20202;-77
2021/12/12 07:50:26;;;;;;;6.47;5.75;;;4.10;97.20;;;;;;1725319;28;20213;-77
2021/12/12 07:51:20;;;;;;;6.85;6.25;;;4.10;97.20;;;;;;1724889;28;20211;-77
2021/12/12 07:52:17;;;;;;;6.10;5.60;;;4.10;97.20;;;;;;1728283;28;20201;-78
2021/12/12 07:53:09;;;;;;;6.45;5.85;;;4.10;97.20;;;;;;1727642;28;20582;-78
2021/12/12 07:54:04;;;;;;;6.40;5.85;;;4.10;97.20;;;;;;1727343;28;20194;-78
2021/12/12 07:54:58;;;;;;;6.13;5.53;;;4.10;97.20;;;;;;1727894;28;20209;-78
2021/12/12 07:55:48;;;;;;;7.25;5.95;;;4.10;97.20;;;;;;1733307;28;20200;-78
2021/12/12 07:56:44;;;;;;;6.10;5.60;;;4.20;97.20;;;;;;1734923;28;20208;-78
2021/12/12 07:57:35;;;;;;;6.72;5.20;;;4.20;97.20;;;;;;1733967;28;20451;-77
2021/12/12 07:58:27;;;;;;;5.75;5.25;;;4.20;97.20;;;;;;1731763;28;20200;-77
2021/12/12 07:59:19;;;;;;;6.43;5.63;;;4.20;97.20;;;;;;1732015;28;20224;-77
2021/12/12 08:00:16;;;;;;;5.50;5.00;;;4.20;97.20;;;;;;1730393;28;20204;-78
2021/12/12 08:01:07;;;;;;;5.90;5.30;;;4.20;97.20;;;;;;1718860;28;20232;-78
2021/12/12 08:02:00;;;;;;;6.20;5.60;;;4.20;97.20;;;;;;1720926;28;20197;-77
2021/12/12 08:02:53;;;;;;;5.50;5.00;;;4.30;97.20;;;;;;1721189;28;20205;-78
2021/12/12 08:03:47;;;;;;;5.35;4.95;;;4.30;97.20;;;;;;1720504;28;20201;-78
2021/12/12 08:04:39;;;;;;;6.53;5.93;;;4.30;97.20;;;;;;1720993;28;20566;-77
2021/12/12 08:05:31;;;;;;;6.93;6.15;;;4.30;97.20;;;;;;1720993;28;20280;-77
2021/12/12 08:06:25;;;;;;;6.47;5.97;;;4.30;97.20;;;;;;1720935;28;20237;-77
2021/12/12 08:07:19;;;;;;;7.35;6.65;;;4.30;97.20;;;;;;1720534;28;20201;-76
2021/12/12 08:08:12;;;;;;;9.07;8.38;;;4.40;97.20;;;;;;1719940;28;20229;-76
2021/12/12 08:09:05;;;;;;;9.02;8.25;;;4.40;97.20;;;;;;1720538;28;20195;-76
2021/12/12 08:09:57;;;;;;;8.70;7.97;;;4.40;97.20;;;;;;1720559;28;20244;-76
2021/12/12 08:10:49;;;;;;;12.57;11.65;;;4.40;97.20;;;;;;1720484;28;20217;-76
2021/12/12 08:11:43;;;;;;;12.38;11.38;;;4.40;97.20;;;;;;1720491;28;20197;-76
2021/12/12 08:12:35;;;;;;;16.42;15.13;;;4.40;97.20;;;;;;1720663;28;20673;-76
2021/12/12 08:13:27;;;;;;;16.38;15.10;;;4.40;97.20;;;;;;1720087;28;20204;-76
2021/12/12 08:14:21;;;;;;;13.90;12.90;;;4.50;97.20;;;;;;1720691;28;20232;-76
2021/12/12 08:15:13;;;;;;;11.90;11.02;;;4.50;97.20;;;;;;1720685;28;20207;-76
2021/12/12 08:16:08;;;;;;;10.95;10.15;;;4.50;97.20;;;;;;1720690;28;20201;-77
2021/12/12 08:17:01;;;;;;;9.55;8.85;;;4.50;97.20;;;;;;1720728;28;20201;-77
2021/12/12 08:17:52;;;;;;;8.38;7.72;;;4.50;97.20;;;;;;1720391;28;20209;-76
2021/12/12 08:18:46;;;;;;;6.90;6.30;;;4.50;97.20;;;;;;1720742;28;20263;-76
2021/12/12 08:19:38;;;;;;;6.28;5.32;;;4.60;97.20;;;;;;1720764;28;20712;-77
2021/12/12 08:20:30;;;;;;;6.10;5.60;;;4.60;97.20;;;;;;1720617;28;20224;-77
2021/12/12 08:21:21;;;;;;;5.07;4.68;;;4.60;97.20;;;;;;1720137;28;20748;-77
2021/12/12 08:22:13;;;;;;;5.20;4.80;;;4.60;97.20;;;;;;1720898;28;20252;-76
2021/12/12 08:23:05;;;;;;;5.22;4.82;;;4.70;97.20;;;;;;1720391;28;20193;-77
2021/12/12 08:24:01;;;;;;;5.40;4.85;;;4.70;97.20;;;;;;1720265;28;20259;-77
2021/12/12 08:24:53;;;;;;;4.70;4.30;;;4.80;97.20;;;;;;1720636;28;20605;-77
2021/12/12 08:25:47;;;;;;;4.78;4.38;;;4.80;97.20;;;;;;1720599;28;20201;-77
2021/12/12 08:26:39;;;;;;;5.05;4.55;;;4.80;97.20;;;;;;1726614;28;20319;-77
2021/12/12 08:27:32;;;;;;;5.15;4.65;;;4.80;97.20;;;;;;1727408;28;20200;-77
2021/12/12 08:28:23;;;;;;;5.10;4.53;;;4.90;97.20;;;;;;1727467;28;20208;-77
2021/12/12 08:29:16;;;;;;;4.75;4.38;;;4.90;97.20;;;;;;1724261;28;20197;-77
2021/12/12 08:30:09;;;;;;;4.50;4.10;;;4.90;97.20;;;;;;1720318;28;20715;-77
2021/12/12 08:31:02;;;;;;;4.75;4.35;;;5.00;97.20;;;;;;1720501;28;20236;-77
2021/12/12 08:31:54;;;;;;;5.18;4.65;;;5.00;97.20;;;;;;1720471;28;20208;-77
2021/12/12 08:32:49;;;;;;;4.75;4.35;;;5.00;97.20;;;;;;1720418;28;20193;-77
2021/12/12 08:33:40;;;;;;;6.20;4.72;;;5.00;97.20;;;;;;1720273;28;20201;-77
2021/12/12 08:34:33;;;;;;;4.55;4.15;;;5.00;97.20;;;;;;1720406;28;20200;-77
2021/12/12 08:35:25;;;;;;;4.13;3.78;;;5.00;97.20;;;;;;1720640;28;20243;-77
2021/12/12 08:36:17;;;;;;;4.10;3.80;;;5.00;97.20;;;;;;1720758;28;20221;-77
2021/12/12 08:37:09;;;;;;;4.60;4.20;;;5.00;97.20;;;;;;1720115;28;20197;-77
2021/12/12 08:38:02;;;;;;;4.07;3.78;;;5.00;97.20;;;;;;1720408;28;20255;-77
2021/12/12 08:38:53;;;;;;;4.53;4.15;;;5.00;97.20;;;;;;1720094;28;20212;-77
2021/12/12 08:39:46;;;;;;;4.97;4.10;;;5.00;97.20;;;;;;1720058;28;20204;-77
2021/12/12 08:40:43;;;;;;;4.85;4.45;;;4.90;97.20;;;;;;1719861;28;20476;-77
2021/12/12 08:41:36;;;;;;;4.60;4.20;;;4.90;97.20;;;;;;1720200;28;20189;-77
2021/12/12 08:42:27;;;;;;;4.70;4.25;;;4.90;97.20;;;;;;1720591;28;20625;-77
2021/12/12 08:43:21;;;;;;;4.65;4.18;;;4.90;97.20;;;;;;1720130;28;20236;-77
2021/12/12 08:44:13;;;;;;;4.68;3.80;;;4.90;97.20;;;;;;1720050;28;20236;-77
2021/12/12 08:45:08;;;;;;;4.63;4.22;;;4.90;97.20;;;;;;1716352;28;20664;-77
2021/12/12 08:46:04;;;;;;;4.50;4.05;;;4.80;97.20;;;;;;1720783;28;20209;-77
2021/12/12 08:46:59;;;;;;;4.72;4.32;;;4.80;97.20;;;;;;1720812;28;20503;-77
2021/12/12 08:47:51;;;;;;;5.00;4.00;;;4.80;97.20;;;;;;1720589;28;20209;-77
2021/12/12 08:48:47;;;;;;;3.95;3.65;;;4.70;97.20;;;;;;1720588;28;20546;-77
2021/12/12 08:49:41;;;;;;;4.22;3.92;;;4.70;97.20;;;;;;1720727;28;20213;-77
2021/12/12 08:50:36;;;;;;;4.00;3.70;;;4.70;97.20;;;;;;1720351;28;20260;-77
2021/12/12 08:51:31;;;;;;;4.20;3.80;;;4.70;97.20;;;;;;1720243;28;20208;-77
2021/12/12 08:52:30;;;;;;;4.38;4.05;;;4.70;97.20;;;;;;1720654;28;20664;-77
2021/12/12 08:53:22;;;;;;;4.03;3.72;;;4.60;97.20;;;;;;1720402;28;20201;-77
2021/12/12 08:54:25;;;;;;;4.55;4.15;;;4.60;97.20;;;;;;1720139;28;20614;-77
2021/12/12 08:55:19;;;;;;;4.75;4.20;;;4.60;97.20;;;;;;1720494;28;20209;-77
2021/12/12 08:56:18;;;;;;;4.38;3.97;;;4.60;97.20;;;;;;1722863;28;20667;-77
2021/12/12 08:57:20;;;;;;;5.28;4.78;;;4.60;97.20;;;;;;1727437;28;20258;-77
2021/12/12 08:58:14;;;;;;;4.90;4.50;;;4.60;97.20;;;;;;1727406;28;20319;-77
2021/12/12 08:59:06;;;;;;;4.28;3.97;;;4.60;97.20;;;;;;1727338;28;20685;-77
2021/12/12 08:59:59;;;;;;;5.07;4.68;;;4.60;97.20;;;;;;1727344;28;20204;-77
2021/12/12 09:00:56;;;;;;;4.65;4.25;;;4.60;97.20;;;;;;1721598;28;20250;-77
2021/12/12 09:01:49;;;;;;;3.75;3.45;;;4.60;97.20;;;;;;1720273;28;20243;-76
2021/12/12 09:02:41;;;;;;;4.00;3.60;;;4.60;97.20;;;;;;1720610;28;20668;-76
2021/12/12 09:03:37;;;;;;;5.18;4.03;;;4.70;97.20;;;;;;1720264;28;20224;-77
2021/12/12 09:04:32;;;;;;;4.45;4.05;;;4.70;97.20;;;;;;1720465;28;20624;-77
2021/12/12 09:05:28;;;;;;;4.47;4.10;;;4.70;97.20;;;;;;1720405;28;20208;-76
2021/12/12 09:06:23;;;;;;;4.93;4.22;;;4.70;97.20;;;;;;1720334;28;20239;-76
2021/12/12 09:07:18;;;;;;;4.40;4.00;;;4.70;97.20;;;;;;1720318;28;20232;-77
2021/12/12 09:08:14;;;;;;;6.10;3.67;;;4.80;97.20;;;;;;1720362;28;20571;-77
2021/12/12 09:09:08;;;;;;;4.43;4.13;;;4.80;97.20;;;;;;1720565;28;20213;-76
2021/12/12 09:10:06;;;;;;;4.93;4.15;;;4.80;97.20;;;;;;1720219;28;20205;-76
2021/12/12 09:11:03;;;;;;;4.20;3.90;;;4.80;97.20;;;;;;1725876;28;20235;-77
2021/12/12 09:12:02;;;;;;;4.15;3.75;;;4.90;97.20;;;;;;1721391;28;20240;-77
2021/12/12 09:12:58;;;;;;;4.63;4.10;;;4.80;97.20;;;;;;1720668;28;20688;-76
2021/12/12 09:13:55;;;;;;;3.95;3.65;;;4.80;97.20;;;;;;1720344;28;20216;-77
2021/12/12 09:14:49;;;;;;;4.47;4.07;;;4.80;97.20;;;;;;1720456;28;20712;-77
2021/12/12 09:15:43;;;;;;;4.55;4.15;;;4.80;97.20;;;;;;1720640;28;20744;-76
2021/12/12 09:16:39;;;;;;;4.15;3.85;;;4.80;97.20;;;;;;1720233;28;20229;-76
2021/12/12 09:17:36;;;;;;;4.00;3.65;;;4.80;97.20;;;;;;1720483;28;20204;-77
2021/12/12 09:18:31;;;;;;;4.47;4.07;;;4.80;97.20;;;;;;1720161;28;20224;-76
2021/12/12 09:19:27;;;;;;;4.70;4.28;;;4.80;97.20;;;;;;1720268;28;20711;-77
2021/12/12 09:20:26;;;;;;;4.63;4.22;;;4.90;97.20;;;;;;1720574;28;20201;-76
2021/12/12 09:21:25;;;;;;;4.20;3.90;;;4.90;97.20;;;;;;1720229;28;20236;-76
2021/12/12 09:22:22;;;;;;;4.10;3.80;;;4.90;97.20;;;;;;1720591;28;20197;-77
2021/12/12 09:23:20;;;;;;;4.40;4.00;;;5.00;97.20;;;;;;1720595;28;20210;-76
2021/12/12 09:24:19;;;;;;;4.10;3.80;;;5.00;97.20;;;;;;1720030;28;20209;-77
2021/12/12 09:25:19;;;;;;;4.00;3.70;;;5.00;97.20;;;;;;1720556;28;20233;-77
2021/12/12 09:26:15;;;;;;;4.30;4.00;;;5.00;97.20;;;;;;1720533;28;20569;-76
2021/12/12 09:27:08;;;;;;;4.40;4.00;;;5.00;97.20;;;;;;1720359;28;20232;-77
2021/12/12 09:28:08;;;;;;;4.50;4.10;;;5.10;97.20;;;;;;1720515;28;20276;-76
2021/12/12 09:29:10;;;;;;;4.35;4.00;;;5.10;97.20;;;;;;1720119;28;20237;-76
2021/12/12 09:30:08;;;;;;;4.50;4.10;;;5.10;97.20;;;;;;1713815;28;20202;-77
2021/12/12 09:31:04;;;;;;;3.97;3.58;;;5.20;97.20;;;;;;1723085;28;20259;-77
2021/12/12 09:32:02;;;;;;;4.32;3.92;;;5.20;97.20;;;;;;1727282;28;20204;-77
2021/12/12 09:32:58;;;;;;;3.80;3.50;;;5.20;97.20;;;;;;1727186;28;20216;-77
2021/12/12 09:33:54;;;;;;;3.88;3.58;;;5.20;97.20;;;;;;1727780;28;20688;-76
2021/12/12 09:34:53;;;;;;;3.85;3.55;;;5.10;97.20;;;;;;1728474;28;20306;-77
2021/12/12 09:35:51;;;;;;;4.20;3.80;;;5.10;97.20;;;;;;1728459;28;20208;-76
2021/12/12 09:36:47;;;;;;;4.00;3.70;;;5.10;97.20;;;;;;1727989;28;20239;-77
2021/12/12 09:37:45;;;;;;;3.92;3.63;;;5.10;97.20;;;;;;1721562;28;20205;-76
2021/12/12 09:38:39;;;;;;;3.63;3.33;;;5.10;97.20;;;;;;1721484;28;20197;-77
2021/12/12 09:39:36;;;;;;;4.10;3.58;;;5.10;97.20;;;;;;1721459;28;20197;-77
2021/12/12 09:40:46;;;;;;;4.53;3.58;;;5.10;97.20;;;;;;1721563;28;20205;-77
2021/12/12 09:41:56;;;;;;;4.10;3.80;;;5.10;97.20;;;;;;1721375;28;20566;-76
2021/12/12 09:43:13;;;;;;;3.53;3.28;;;5.10;97.20;;;;;;1721701;28;20220;-77
2021/12/12 09:44:35;;;;;;;4.50;4.10;;;5.00;97.20;;;;;;1718861;28;20264;-76
2021/12/12 09:45:53;;;;;;;3.50;3.20;;;5.00;97.20;;;;;;1721313;28;20216;-77
2021/12/12 09:47:25;;;;;;;3.60;3.30;;;5.00;97.20;;;;;;1718739;28;20205;-77
2021/12/12 09:51:45;;;;;;;3.60;3.30;;;5.00;97.20;;;;;;1721071;28;20332;-77
2021/12/12 09:53:27;;;;;;;4.47;3.50;;;5.00;97.20;;;;;;1721709;28;20691;-77
2021/12/12 09:54:32;;;;;;;3.80;3.50;;;5.10;97.20;;;;;;1706423;28;20210;-77
2021/12/12 09:55:27;;;;;;;4.10;3.72;;;5.10;97.20;;;;;;1721242;28;20233;-77
2021/12/12 09:56:29;;;;;;;3.03;2.83;;;5.20;97.20;;;;;;1721686;28;20288;-77
2021/12/12 09:57:26;;;;;;;4.43;4.05;;;5.20;97.20;;;;;;1721624;28;20200;-77
2021/12/12 09:58:29;;;;;;;3.00;2.80;;;5.20;97.20;;;;;;1721583;28;20328;-77
2021/12/12 09:59:40;;;;;;;3.75;3.45;;;5.20;97.20;;;;;;1717384;28;20202;-77
2021/12/12 10:00:41;;;;;;;3.70;3.40;;;5.30;97.20;;;;;;1714625;28;20194;-76
2021/12/12 10:01:37;;;;;;;3.58;3.22;;;5.40;97.20;;;;;;1722996;28;20216;-77
2021/12/12 10:02:34;;;;;;;3.08;2.88;;;5.40;97.20;;;;;;1728270;28;20192;-76
2021/12/12 10:03:34;;;;;;;3.60;3.30;;;5.50;97.20;;;;;;1728154;28;20211;-76
2021/12/12 10:04:29;;;;;;;3.50;3.20;;;5.50;97.20;;;;;;1724692;28;20209;-77
2021/12/12 10:05:29;;;;;;;3.20;2.90;;;5.60;97.20;;;;;;1721560;28;20236;-77
2021/12/12 10:06:29;;;;;;;3.35;3.10;;;5.60;97.20;;;;;;1721553;28;20201;-77
2021/12/12 10:07:34;;;;;;;4.00;3.10;;;5.60;97.20;;;;;;1721254;28;20696;-77
2021/12/12 10:08:35;;;;;;;3.22;2.92;;;5.70;97.20;;;;;;1721281;28;20201;-77
2021/12/12 10:09:37;;;;;;;3.22;2.90;;;5.70;97.20;;;;;;1721360;28;20193;-77
2021/12/12 10:10:30;;;;;;;3.30;3.03;;;5.70;97.20;;;;;;1721188;28;20201;-77
2021/12/12 10:11:31;;;;;;;3.40;3.10;;;5.70;97.20;;;;;;1721395;28;20280;-77
2021/12/12 10:12:25;;;;;;;3.70;3.40;;;5.70;97.20;;;;;;1714821;28;20216;-77
2021/12/12 10:13:23;;;;;;;3.65;3.35;;;5.70;97.20;;;;;;1714733;28;20202;-77
2021/12/12 10:14:18;;;;;;;3.25;2.97;;;5.70;97.20;;;;;;1714700;28;20210;-76
2021/12/12 10:15:19;;;;;;;4.82;3.33;;;5.70;97.20;;;;;;1714743;28;20233;-77
2021/12/12 10:16:19;;;;;;;3.88;3.47;;;5.70;97.20;;;;;;1714845;28;20194;-77
2021/12/12 10:17:14;;;;;;;3.20;3.00;;;5.60;97.20;;;;;;1721002;28;20194;-76
2021/12/12 10:18:11;;;;;;;3.20;2.90;;;5.60;97.20;;;;;;1721402;28;20213;-76
2021/12/12 10:19:07;;;;;;;3.40;3.10;;;5.60;97.20;;;;;;1714727;28;20214;-77
2021/12/12 10:20:05;;;;;;;3.22;2.92;;;5.60;97.20;;;;;;1714723;28;20202;-77
2021/12/12 10:21:04;;;;;;;3.00;2.70;;;5.50;97.20;;;;;;1714570;28;20264;-77
2021/12/12 10:22:12;;;;;;;2.65;2.45;;;5.50;97.20;;;;;;1719182;28;20224;-76
2021/12/12 10:23:11;;;;;;;3.10;2.80;;;5.50;97.20;;;;;;1721426;28;20237;-77
2021/12/12 10:24:12;;;;;;;2.70;2.50;;;5.40;97.20;;;;;;1720835;28;20652;-77
2021/12/12 10:25:11;;;;;;;3.20;2.90;;;5.40;97.20;;;;;;1721401;28;20236;-76
2021/12/12 10:26:07;;;;;;;3.03;2.83;;;5.50;97.20;;;;;;1721416;28;20259;-76
2021/12/12 10:27:08;;;;;;;2.90;2.70;;;5.50;97.20;;;;;;1721427;28;20209;-76
2021/12/12 10:28:01;;;;;;;3.03;2.72;;;5.50;97.20;;;;;;1721405;28;20583;-77
2021/12/12 10:28:58;;;;;;;2.80;2.60;;;5.50;97.20;;;;;;1721147;28;20193;-76
2021/12/12 10:30:02;;;;;;;2.88;2.67;;;5.40;97.20;;;;;;1720901;28;20205;-76
2021/12/12 10:30:58;;;;;;;3.05;2.70;;;5.40;97.20;;;;;;1719443;28;20696;-76
2021/12/12 10:31:54;;;;;;;2.90;2.70;;;5.40;97.20;;;;;;1722854;28;20657;-76
2021/12/12 10:32:51;;;;;;;3.17;2.88;;;5.50;97.20;;;;;;1728136;28;20680;-76
2021/12/12 10:33:49;;;;;;;2.80;2.60;;;5.50;97.20;;;;;;1727841;28;20643;-76
2021/12/12 10:34:43;;;;;;;2.80;2.60;;;5.50;97.20;;;;;;1728041;28;20204;-76
2021/12/12 10:35:41;;;;;;;2.92;2.70;;;5.50;97.20;;;;;;1728095;28;20201;-76
2021/12/12 10:36:36;;;;;;;2.65;2.45;;;5.50;97.20;;;;;;1723254;28;20216;-76
2021/12/12 10:37:33;;;;;;;2.60;2.40;;;5.50;97.20;;;;;;1721585;28;20544;-78
2021/12/12 10:38:29;;;;;;;3.53;2.78;;;5.60;97.20;;;;;;1721419;28;20198;-78
2021/12/12 10:39:25;;;;;;;3.10;2.55;;;5.60;97.20;;;;;;1721449;28;20193;-78
2021/12/12 10:40:20;;;;;;;2.75;2.55;;;5.60;97.20;;;;;;1721297;28;20597;-76
2021/12/12 10:41:17;;;;;;;3.00;2.80;;;5.60;97.20;;;;;;1721310;28;20197;-76
2021/12/12 10:42:11;;;;;;;2.50;2.30;;;5.50;97.20;;;;;;1720961;28;20232;-76
2021/12/12 10:43:12;;;;;;;3.42;3.13;;;5.50;97.20;;;;;;1721237;28;20205;-76
2021/12/12 10:44:10;;;;;;;2.63;2.40;;;5.50;97.20;;;;;;1720984;28;20209;-76
2021/12/12 10:45:06;;;;;;;3.28;2.53;;;5.50;97.20;;;;;;1721327;28;20197;-76
2021/12/12 10:46:03;;;;;;;3.67;2.67;;;5.50;97.20;;;;;;1721272;28;20248;-76
2021/12/12 10:46:59;;;;;;;2.80;2.55;;;5.50;97.20;;;;;;1721006;28;20232;-76
2021/12/12 10:47:55;;;;;;;2.40;2.20;;;5.50;97.20;;;;;;1721221;28;20348;-76
2021/12/12 10:49:01;;;;;;;3.08;2.83;;;5.40;97.20;;;;;;1720986;28;20205;-76
2021/12/12 10:50:14;;;;;;;2.30;2.10;;;5.40;97.20;;;;;;1720928;28;20208;-76
2021/12/12 10:51:10;;;;;;;2.65;2.45;;;5.40;97.20;;;;;;1721189;28;20204;-76
2021/12/12 10:52:07;;;;;;;2.80;2.60;;;5.40;97.20;;;;;;1721056;28;20672;-76
2021/12/12 10:53:04;;;;;;;2.78;2.58;;;5.40;97.20;;;;;;1721329;28;20213;-76
2021/12/12 10:54:03;;;;;;;2.33;2.15;;;5.40;97.20;;;;;;1720971;28;20546;-76